ADDS METAR Data INFO
IDs: Format: Raw Decoded Include TAF

Data at: 1052 UTC 20 Sep 2017

KTYR 200953Z AUTO 19011KT 10SM BKN012 25/24 A2990 RMK AO2 SLP116 T02500239
KTYR 200853Z AUTO 18010KT 10SM FEW012 25/24 A2990 RMK AO2 SLP115 T02500239 53003
KTYR 200753Z AUTO 19007KT 10SM SCT013 26/24 A2990 RMK AO2 SLP115 T02560239
KTYR 200653Z AUTO 18010KT 10SM CLR 26/24 A2988 RMK AO2 SLP109 T02560239
KTYR 200553Z AUTO 17007KT 10SM CLR 26/24 A2989 RMK AO2 SLP112 T02610239 10300 20256 403330222 51001
KTYR 200453Z AUTO 16009KT 10SM CLR 26/24 A2988 RMK AO2 SLP112 T02610239
KTYR 200353Z AUTO 16007KT 10SM CLR 27/24 A2990 RMK AO2 SLP117 T02670239
KTYR 200253Z AUTO 16005KT 10SM CLR 27/23 A2988 RMK AO2 SLP112 T02720233 53017
KTYR 200153Z 16006KT 10SM CLR 28/23 A2986 RMK AO2 SLP105 T02780228
KTYR 200053Z 16007KT 10SM CLR 29/23 A2984 RMK AO2 SLP098 T02890228
KTYR 192353Z 17011KT 10SM FEW002 30/22 A2983 RMK AO2 SLP095 T03000217 10333 20294 56001
KTYR 192351Z 17009KT 10SM FEW002 30/22 A2983 RMK AO2
KTYR 192253Z 16012KT 10SM SCT040 32/22 A2983 RMK AO2 SLP091 T03220217
KTYR 192153Z 20012KT 10SM CLR 33/21 A2984 RMK AO2 SLP095 T03330211
KTYR 192053Z 19011KT 10SM SCT040 33/22 A2986 RMK AO2 SLP103 T03280217 56030
KTYR 191953Z 18011KT 10SM FEW038 33/21 A2989 RMK AO2 SLP111 T03280211
KTYR 191900Z 19010G16KT 10SM SCT035 32/22 A2992 RMK AO2 T03170217
KTYR 191853Z 18012G16KT 10SM BKN028 OVC035 31/22 A2992 RMK AO2 SLP124 T03110217
KTYR 191753Z 22009KT 10SM BKN028 OVC035 30/23 A2995 RMK AO2 SLP134 T03000228 10306 20239 58008
KTYR 191722Z 23008KT 10SM BKN026 BKN032 29/23 A2996 RMK AO2 T02890228
KTYR 191700Z 20010KT 10SM SCT025 SCT029 29/23 A2997 RMK AO2 T02890228
KTYR 191653Z 21008KT 10SM BKN021 28/23 A2997 RMK AO2 SLP140 T02780228
KTYR 191553Z 22010KT 10SM BKN021 27/23 A2998 RMK AO2 SLP143 T02670233
KTYR 191453Z 21008KT 10SM BKN015 26/23 A2997 RMK AO2 SLP142 T02610233 53008
KTYR 191438Z 22010KT 6SM BR BKN010 OVC015 26/23 A2997 RMK AO2 T02560233
KTYR 191353Z 21009KT 10SM BKN008 25/23 A2996 RMK AO2 CIG 007V012 SLP138 T02500233
KTYR 191253Z 21008KT 10SM OVC005 24/24 A2996 RMK AO2 SLP136 T02390239
KTYR 191153Z AUTO 21007KT 10SM BKN008 OVC011 24/23 A2995 RMK AO2 SLP134 T02390233 10239 20222 51003
KTYR 191101Z AUTO 19008KT 10SM BKN008 BKN013 23/23 A2995 RMK AO2 T02280228
KTYR 191053Z AUTO 19008KT 10SM SCT008 BKN014 23/23 A2995 RMK AO2 SLP134 T02280228
KTYR 191022Z AUTO 18006KT 10SM BKN014 23/23 A2995 RMK AO2 T02280228
KTYR 190953Z AUTO 20006KT 10SM BKN025 23/22 A2994 RMK AO2 SLP130 T02280222
KTYR 190916Z AUTO 19007KT 10SM SCT004 OVC021 23/23 A2994 RMK AO2 T02280228
KTYR 190853Z AUTO 18008KT 10SM BKN004 OVC021 22/22 A2993 RMK AO2 SLP128 T02220222 56003
KTYR 190830Z AUTO 18009KT 10SM BKN004 22/22 A2993 RMK AO2 T02220222
KTYR 190817Z AUTO 17009KT 10SM SCT004 22/22 A2993 RMK AO2 T02220222
KTYR 190753Z AUTO 17009KT 10SM CLR 23/23 A2993 RMK AO2 SLP128 T02280228
KTYR 190653Z AUTO 17007KT 10SM CLR 23/22 A2994 RMK AO2 SLP130 T02280222
KTYR 190553Z AUTO 16007KT 10SM CLR 23/22 A2994 RMK AO2 SLP132 T02280222 10289 20228 403330206 58003
KTYR 190453Z AUTO 18005KT 10SM CLR 23/22 A2995 RMK AO2 SLP133 T02330222
KTYR 190353Z AUTO 18006KT 10SM CLR 24/23 A2995 RMK AO2 SLP135 T02390228
KTYR 190253Z AUTO 17007KT 10SM CLR 26/24 A2995 RMK AO2 SLP135 T02560239 53007
KTYR 190153Z 16009KT 10SM CLR 27/23 A2995 RMK AO2 SLP133 T02670233
KTYR 190053Z 16007KT 10SM CLR 27/23 A2993 RMK AO2 SLP129 T02720228
KTYR 182353Z 16011KT 10SM CLR 29/21 A2993 RMK AO2 SLP128 T02890206 10333 20289 53001
KTYR 182253Z 17009KT 10SM CLR 30/21 A2993 RMK AO2 SLP126 T03000206